Castleberry, Alabama
Current Conditions -  °F | °C
As of 1:53 PM on Sunday 23 Nov 2014 (Local Time) from KGZH Reporting Station
Light Rain Light Rain  
Wind Chill: 66°   Ceiling: 11000
Heat Index: 66°   Visibility: 10mi
Dew Point: 59°   Wind: 16mph
Humidity: 78%   Direction: 200°SSW
Pressure: 29.66"   Gusts: 36mph
Location:  31.3°N, 87.02°W
Report Text: KGZH 231953Z AUTO 20014G31KT 10SM -RA FEW090 BKN110 19/15 A2966 RMK AO2 PK WND 19031/1946 SLP040 P0005 T01890150
Loading
Personal Weather Stations






























Interactive Weather Map New forecast layout! Learn more

10-Day Weather Forecast

Advertisements
Track Severe Weather on mobile